createdAt,value
2019-02-23T00:00:02.857Z,562.33
2019-02-23T00:02:31.271Z,449.47
2019-02-23T00:07:53.192Z,342.37
2019-02-23T00:10:21.683Z,241.73
2019-02-23T00:12:50.089Z,180.87
2019-02-23T00:15:18.535Z,126.43
2019-02-23T00:17:46.937Z,67.10
2019-02-23T00:20:15.493Z,29.93
2019-02-23T00:22:43.910Z,12.67
2019-02-23T00:25:12.351Z,7.10
2019-02-23T00:27:40.748Z,6.40
2019-02-23T00:30:09.148Z,4.80
2019-02-23T00:32:37.571Z,4.37
2019-02-23T00:35:05.971Z,4.07
2019-02-23T00:37:34.376Z,4.23
2019-02-23T00:40:02.769Z,3.90
2019-02-23T00:42:31.163Z,3.67
2019-02-23T00:44:59.553Z,3.87
2019-02-23T00:47:27.946Z,3.47
2019-02-23T00:49:56.342Z,3.50
2019-02-23T00:52:24.732Z,3.50
2019-02-23T00:54:53.141Z,3.57
2019-02-23T00:57:21.563Z,3.17
2019-02-23T00:59:49.966Z,3.27
2019-02-23T01:02:18.359Z,3.17
2019-02-23T01:04:46.778Z,3.17
2019-02-23T01:07:15.175Z,3.33
2019-02-23T01:09:43.612Z,3.30
2019-02-23T01:12:12.075Z,3.17
2019-02-23T01:14:40.498Z,2.93
2019-02-23T01:17:08.884Z,3.20
2019-02-23T01:19:47.420Z,3.10
2019-02-23T01:22:07.418Z,2.90
2019-02-23T01:24:35.889Z,3.27
2019-02-23T01:27:04.278Z,3.03
2019-02-23T01:29:32.732Z,3.30
2019-02-23T01:32:01.146Z,2.90
2019-02-23T01:34:29.564Z,2.77
2019-02-23T01:36:57.950Z,2.83
2019-02-23T01:39:26.467Z,3.10
2019-02-23T01:41:54.858Z,3.17
2019-02-23T01:44:23.281Z,2.87
2019-02-23T01:46:51.737Z,2.97
2019-02-23T01:49:20.150Z,3.00
2019-02-23T01:51:48.538Z,2.90
2019-02-23T01:54:16.978Z,3.20
2019-02-23T01:56:45.377Z,2.80
2019-02-23T01:59:13.896Z,3.27
2019-02-23T02:01:42.290Z,3.07
2019-02-23T02:04:10.715Z,3.00
2019-02-23T02:06:39.135Z,3.30
2019-02-23T02:09:07.932Z,3.17
2019-02-23T02:11:36.321Z,2.90
2019-02-23T02:14:04.812Z,3.23
2019-02-23T02:16:33.207Z,3.33
2019-02-23T02:19:01.607Z,2.90
2019-02-23T02:21:29.999Z,3.60
2019-02-23T02:23:58.389Z,2.93
2019-02-23T02:26:26.775Z,2.93
2019-02-23T02:28:55.172Z,3.03
2019-02-23T02:31:23.575Z,3.17
2019-02-23T02:34:09.154Z,3.17
2019-02-23T02:36:37.549Z,3.33
2019-02-23T02:39:08.645Z,3.33
2019-02-23T02:41:37.043Z,3.10
2019-02-23T02:44:05.433Z,3.30
2019-02-23T02:46:33.894Z,3.27
2019-02-23T02:49:02.281Z,2.80
2019-02-23T02:51:30.683Z,2.77
2019-02-23T02:53:59.071Z,2.90
2019-02-23T02:56:27.472Z,2.93
2019-02-23T02:58:55.859Z,3.03
2019-02-23T03:01:24.259Z,2.83
2019-02-23T03:03:52.650Z,3.57
2019-02-23T03:06:21.035Z,3.13
2019-02-23T03:08:49.428Z,3.37
2019-02-23T03:11:17.872Z,3.07
2019-02-23T03:13:46.267Z,3.10
2019-02-23T03:16:14.669Z,2.97
2019-02-23T03:18:43.066Z,3.03
2019-02-23T03:21:11.460Z,2.80
2019-02-23T03:23:39.847Z,2.83
2019-02-23T03:26:08.310Z,3.00
2019-02-23T03:28:36.711Z,2.80
2019-02-23T03:31:05.130Z,3.00
2019-02-23T03:33:33.521Z,2.90
2019-02-23T03:36:02.069Z,2.80
2019-02-23T03:38:30.530Z,2.70
2019-02-23T03:40:58.928Z,2.53
2019-02-23T03:43:27.354Z,3.00
2019-02-23T03:45:55.777Z,3.10
2019-02-23T03:48:24.535Z,3.03
2019-02-23T03:50:52.924Z,2.67
2019-02-23T03:53:21.338Z,2.50
2019-02-23T03:55:49.800Z,2.87
2019-02-23T03:58:18.186Z,2.57
2019-02-23T04:00:46.605Z,2.87
2019-02-23T04:03:14.989Z,2.80
2019-02-23T04:05:43.416Z,2.60
2019-02-23T04:08:11.869Z,2.90
2019-02-23T04:10:40.307Z,2.70
2019-02-23T04:13:08.708Z,2.70
2019-02-23T04:15:37.405Z,2.73
2019-02-23T04:18:05.907Z,2.80
2019-02-23T04:20:34.332Z,2.60
2019-02-23T04:23:02.728Z,2.77
2019-02-23T04:25:31.160Z,2.47
2019-02-23T04:27:59.548Z,2.83
2019-02-23T04:30:27.996Z,3.03
2019-02-23T04:32:56.393Z,2.30
2019-02-23T04:35:24.830Z,2.60
2019-02-23T04:37:53.219Z,2.47
2019-02-23T04:40:21.693Z,2.50
2019-02-23T04:42:50.092Z,2.57
2019-02-23T04:45:18.517Z,2.57
2019-02-23T04:47:47.078Z,2.53
2019-02-23T04:50:15.495Z,2.60
2019-02-23T04:52:43.952Z,2.50
2019-02-23T04:55:12.418Z,2.50
2019-02-23T04:57:40.806Z,2.43
2019-02-23T05:00:12.655Z,1.97
2019-02-23T05:02:41.199Z,2.60
2019-02-23T05:05:09.978Z,2.70
2019-02-23T05:07:38.371Z,2.70
2019-02-23T05:10:08.441Z,2.57
2019-02-23T05:12:36.862Z,2.97
2019-02-23T05:15:07.530Z,2.50
2019-02-23T05:17:35.918Z,2.57
2019-02-23T05:20:05.070Z,2.43
2019-02-23T05:22:33.463Z,2.80
2019-02-23T05:25:01.861Z,2.63
2019-02-23T05:27:30.249Z,3.17
2019-02-23T05:29:58.640Z,2.90
2019-02-23T05:32:27.036Z,2.77
2019-02-23T05:34:55.417Z,3.10
2019-02-23T05:37:23.972Z,3.13
2019-02-23T05:39:52.369Z,3.70
2019-02-23T05:42:20.773Z,3.43
2019-02-23T05:44:49.166Z,3.00
2019-02-23T05:47:17.567Z,3.13
2019-02-23T05:49:45.964Z,3.10
2019-02-23T05:52:14.358Z,3.30
2019-02-23T05:54:42.774Z,3.50
2019-02-23T05:57:11.168Z,2.80
2019-02-23T05:59:39.558Z,3.40
2019-02-23T06:02:07.950Z,2.80
2019-02-23T06:04:36.338Z,3.17
2019-02-23T06:07:04.803Z,3.20
2019-02-23T06:09:33.192Z,3.43
2019-02-23T06:12:01.606Z,3.20
2019-02-23T06:14:30.016Z,3.23
2019-02-23T06:16:58.383Z,3.13
2019-02-23T06:19:26.781Z,3.30
2019-02-23T06:21:55.180Z,3.37
2019-02-23T06:24:23.572Z,3.90
2019-02-23T06:26:51.988Z,3.90
2019-02-23T06:29:20.381Z,4.20
2019-02-23T06:31:48.780Z,3.90
2019-02-23T06:34:17.240Z,4.30
2019-02-23T06:36:45.599Z,3.90
2019-02-23T06:39:14.061Z,3.93
2019-02-23T06:41:42.456Z,4.30
2019-02-23T06:44:10.855Z,4.20
2019-02-23T06:46:39.255Z,4.40
2019-02-23T06:49:07.639Z,4.03
2019-02-23T06:51:36.070Z,4.37
2019-02-23T06:54:05.448Z,3.97
2019-02-23T06:56:33.930Z,4.10
2019-02-23T06:59:02.370Z,4.37
2019-02-23T07:01:30.790Z,3.73
2019-02-23T07:03:59.224Z,4.47
2019-02-23T07:06:27.659Z,4.10
2019-02-23T07:08:56.054Z,4.20
2019-02-23T07:11:24.485Z,4.33
2019-02-23T07:13:52.892Z,3.90
2019-02-23T07:16:21.284Z,4.07
2019-02-23T07:18:49.680Z,4.30
2019-02-23T07:21:18.111Z,4.40
2019-02-23T07:23:46.529Z,3.87
2019-02-23T07:26:14.971Z,4.30
2019-02-23T07:28:43.363Z,4.20
2019-02-23T07:31:11.791Z,4.10
2019-02-23T07:33:40.194Z,4.10
2019-02-23T07:36:08.684Z,4.10
2019-02-23T07:38:37.078Z,4.47
2019-02-23T07:41:05.509Z,3.80
2019-02-23T07:43:34.005Z,4.43
2019-02-23T07:46:02.426Z,3.93
2019-02-23T07:48:30.822Z,4.00
2019-02-23T07:50:59.215Z,3.77
2019-02-23T07:53:27.619Z,3.80
2019-02-23T07:55:56.096Z,3.80
2019-02-23T07:58:24.488Z,3.60
2019-02-23T08:00:52.878Z,3.43
2019-02-23T08:03:21.271Z,3.87
2019-02-23T08:05:49.663Z,3.60
2019-02-23T08:08:18.057Z,3.90
2019-02-23T08:10:46.447Z,3.87
2019-02-23T08:13:14.843Z,3.60
2019-02-23T08:15:43.239Z,3.80
2019-02-23T08:18:12.330Z,3.53
2019-02-23T08:20:40.730Z,3.50
2019-02-23T08:23:09.161Z,3.90
2019-02-23T08:25:37.567Z,3.30
2019-02-23T08:28:06.160Z,3.23
2019-02-23T08:30:34.555Z,3.20
2019-02-23T08:33:03.045Z,3.77
2019-02-23T08:35:31.445Z,3.20
2019-02-23T08:37:59.905Z,4.00
2019-02-23T08:40:28.303Z,3.33
2019-02-23T08:42:56.698Z,3.60
2019-02-23T08:45:25.105Z,4.37
2019-02-23T08:47:53.522Z,3.97
2019-02-23T08:50:22.101Z,4.30
2019-02-23T08:52:50.583Z,4.73
2019-02-23T08:55:19.093Z,5.10
2019-02-23T08:57:47.505Z,4.73
2019-02-23T09:00:19.453Z,4.80
2019-02-23T09:02:47.889Z,5.37
2019-02-23T09:05:16.284Z,4.53
2019-02-23T09:07:46.282Z,5.60
2019-02-23T09:10:15.214Z,5.30
2019-02-23T09:12:43.613Z,5.20
2019-02-23T09:15:12.278Z,5.20
2019-02-23T09:17:40.682Z,4.97
2019-02-23T09:20:13.237Z,5.50
2019-02-23T09:22:41.638Z,5.40
2019-02-23T09:25:11.183Z,5.30
2019-02-23T09:27:39.588Z,5.13
2019-02-23T09:30:12.643Z,4.70
2019-02-23T09:32:41.048Z,5.37
2019-02-23T09:35:11.152Z,4.87
2019-02-23T09:37:41.194Z,4.90
2019-02-23T09:40:20.461Z,5.13
2019-02-23T09:42:48.863Z,4.97
2019-02-23T09:45:17.272Z,4.97
2019-02-23T09:47:45.698Z,5.40
2019-02-23T09:50:14.101Z,5.73
2019-02-23T09:52:42.508Z,4.47
2019-02-23T09:55:10.911Z,4.60
2019-02-23T09:57:39.335Z,5.07
2019-02-23T10:00:12.727Z,5.00
2019-02-23T10:02:41.163Z,5.40
2019-02-23T10:05:09.978Z,5.30
2019-02-23T10:07:38.409Z,4.73
2019-02-23T10:10:09.534Z,5.33
2019-02-23T10:12:38.010Z,4.73
2019-02-23T10:15:08.649Z,5.47
2019-02-23T10:17:37.075Z,5.47
2019-02-23T10:20:14.077Z,5.47
2019-02-23T10:22:42.486Z,5.20
2019-02-23T10:25:10.878Z,4.93
2019-02-23T10:27:39.312Z,4.43
2019-02-23T10:30:13.672Z,4.83
2019-02-23T10:32:42.090Z,5.07
2019-02-23T10:35:12.119Z,4.87
2019-02-23T10:37:40.645Z,5.50
2019-02-23T10:40:11.232Z,5.10
2019-02-23T10:42:39.658Z,5.40
2019-02-23T10:45:12.786Z,5.33
2019-02-23T10:47:41.222Z,5.47
2019-02-23T10:50:17.001Z,5.20
2019-02-23T10:52:45.386Z,5.33
2019-02-23T10:55:14.918Z,5.40
2019-02-23T10:57:43.319Z,5.40
2019-02-23T11:00:18.594Z,5.80
2019-02-23T11:02:47.061Z,5.27
2019-02-23T11:05:15.792Z,5.30
2019-02-23T11:07:45.493Z,5.57
2019-02-23T11:10:13.951Z,4.97
2019-02-23T11:12:42.382Z,5.23
2019-02-23T11:15:12.910Z,5.27
2019-02-23T11:17:41.341Z,5.17
2019-02-23T11:20:10.887Z,5.20
2019-02-23T11:22:39.350Z,5.50
2019-02-23T11:25:10.174Z,4.57
2019-02-23T11:27:38.596Z,4.90
2019-02-23T11:30:10.345Z,5.20
2019-02-23T11:32:38.773Z,5.33
2019-02-23T11:35:09.140Z,4.90
2019-02-23T11:37:37.555Z,5.37
2019-02-23T11:40:11.125Z,4.80
2019-02-23T11:42:41.121Z,4.77
2019-02-23T11:45:10.856Z,4.70
2019-02-23T11:47:39.295Z,4.30
2019-02-23T11:50:11.679Z,4.60
2019-02-23T11:52:40.091Z,4.50
2019-02-23T11:55:08.494Z,4.73
2019-02-23T11:57:36.976Z,4.30
2019-02-23T12:00:08.269Z,4.40
2019-02-23T12:02:36.687Z,4.03
2019-02-23T12:05:05.151Z,4.50
2019-02-23T12:07:33.589Z,4.20
2019-02-23T12:10:01.989Z,3.83
2019-02-23T12:12:30.407Z,3.70
2019-02-23T12:14:58.788Z,3.77
2019-02-23T12:17:27.180Z,3.80
2019-02-23T12:19:55.593Z,3.70
2019-02-23T12:22:24.024Z,3.80
2019-02-23T12:24:52.418Z,3.77
2019-02-23T12:27:20.810Z,3.80
2019-02-23T12:29:49.213Z,3.80
2019-02-23T12:32:17.610Z,3.90
2019-02-23T12:34:46.007Z,3.40
2019-02-23T12:37:14.408Z,3.60
2019-02-23T12:39:43.880Z,3.20
2019-02-23T12:42:12.273Z,3.83
2019-02-23T12:44:40.793Z,3.80
2019-02-23T12:47:09.208Z,3.70
2019-02-23T12:49:37.644Z,3.77
2019-02-23T12:52:06.038Z,3.67
2019-02-23T12:54:34.451Z,4.30
2019-02-23T12:57:02.853Z,4.00
2019-02-23T12:59:31.274Z,4.00
2019-02-23T13:01:59.663Z,3.70
2019-02-23T13:04:28.070Z,4.10
2019-02-23T13:06:56.497Z,4.03
2019-02-23T13:09:27.401Z,3.57
2019-02-23T13:12:23.243Z,3.60
2019-02-23T13:15:03.926Z,4.20
2019-02-23T13:17:38.843Z,4.27
2019-02-23T13:20:22.505Z,4.67
2019-02-23T13:23:06.219Z,4.50
2019-02-23T13:25:55.782Z,4.43
2019-02-23T13:28:45.471Z,3.93
2019-02-23T13:31:23.319Z,3.33
2019-02-23T13:34:00.834Z,3.53
2019-02-23T13:36:38.712Z,3.93
2019-02-23T13:39:28.636Z,4.07
2019-02-23T13:42:21.402Z,3.73
2019-02-23T13:45:09.948Z,3.80
2019-02-23T13:47:59.747Z,3.20
2019-02-23T13:50:34.463Z,3.97
2019-02-23T13:53:15.132Z,3.50
2019-02-23T13:55:49.480Z,3.40
2019-02-23T13:58:24.153Z,3.83
2019-02-23T14:01:04.585Z,3.47
2019-02-23T14:03:57.717Z,3.63
2019-02-23T14:06:38.386Z,5.50
2019-02-23T14:09:42.033Z,4.30
2019-02-23T14:12:13.712Z,4.00
2019-02-23T14:15:03.395Z,4.23
2019-02-23T14:17:37.943Z,3.50
2019-02-23T14:20:24.557Z,4.13
2019-02-23T14:23:08.392Z,3.93
2019-02-23T14:25:45.810Z,4.13
2019-02-23T14:28:17.496Z,4.20
2019-02-23T14:31:01.268Z,4.40
2019-02-23T14:34:01.807Z,3.80
2019-02-23T14:37:08.332Z,4.40
2019-02-23T14:39:58.193Z,16.47
2019-02-23T14:43:01.715Z,7.27
2019-02-23T14:46:00.491Z,6.17
2019-02-23T14:48:57.940Z,5.10
2019-02-23T14:51:51.909Z,4.80
2019-02-23T14:54:26.760Z,5.07
2019-02-23T14:57:19.816Z,5.00
2019-02-23T15:00:03.548Z,5.23
2019-02-23T15:02:43.869Z,5.30
2019-02-23T15:05:27.480Z,5.03
2019-02-23T15:07:59.132Z,5.40
2019-02-23T15:10:53.160Z,4.50
2019-02-23T15:13:47.569Z,4.80
2019-02-23T15:16:31.027Z,4.93
2019-02-23T15:19:36.178Z,4.90
2019-02-23T15:22:17.053Z,5.00
2019-02-23T15:25:23.546Z,4.43
2019-02-23T15:28:30.322Z,4.90
2019-02-23T15:30:59.077Z,4.50
2019-02-23T15:33:51.905Z,4.60
2019-02-23T15:36:29.637Z,5.27
2019-02-23T15:39:27.221Z,4.60
2019-02-23T15:42:24.113Z,4.60
2019-02-23T15:45:01.333Z,4.87
2019-02-23T15:47:58.968Z,4.37
2019-02-23T15:50:27.461Z,4.70
2019-02-23T15:52:55.944Z,4.73
2019-02-23T15:55:26.523Z,4.23
2019-02-23T15:57:54.642Z,4.70
2019-02-23T16:00:23.163Z,5.13
2019-02-23T16:02:51.557Z,4.80
2019-02-23T16:05:21.674Z,4.93
2019-02-23T16:07:50.091Z,4.70
2019-02-23T16:10:18.488Z,5.17
2019-02-23T16:12:46.872Z,5.20
2019-02-23T16:15:15.270Z,4.90
2019-02-23T16:17:43.684Z,5.23
2019-02-23T16:20:12.069Z,5.40
2019-02-23T16:22:40.278Z,5.10
2019-02-23T16:25:08.679Z,5.13
2019-02-23T16:27:37.146Z,5.20
2019-02-23T16:30:08.450Z,5.43
2019-02-23T16:32:36.845Z,6.50
2019-02-23T16:35:07.059Z,11.37
2019-02-23T16:37:35.470Z,11.63
2019-02-23T16:40:03.948Z,15.57
2019-02-23T16:42:32.346Z,16.00
2019-02-23T16:45:00.751Z,14.80
2019-02-23T16:47:30.723Z,15.30
2019-02-23T16:49:59.237Z,18.05
2019-02-23T16:52:27.645Z,17.33
2019-02-23T16:54:56.096Z,17.60
2019-02-23T16:57:24.534Z,19.37
2019-02-23T16:59:53.056Z,18.80
2019-02-23T17:02:21.471Z,20.77
2019-02-23T17:04:54.053Z,20.43
2019-02-23T17:07:21.359Z,18.80
2019-02-23T17:09:49.786Z,19.83
2019-02-23T17:12:18.185Z,19.80
2019-02-23T17:14:46.624Z,20.37
2019-02-23T17:17:15.053Z,21.77
2019-02-23T17:19:43.470Z,21.40
2019-02-23T17:25:07.642Z,21.97
2019-02-23T17:27:36.662Z,23.37
2019-02-23T17:30:07.260Z,21.80
2019-02-23T17:32:35.739Z,21.33
2019-02-23T17:35:05.496Z,22.00
2019-02-23T17:37:33.898Z,22.30
2019-02-23T17:40:02.343Z,21.77
2019-02-23T17:42:30.807Z,21.77
2019-02-23T17:44:59.225Z,21.83
2019-02-23T17:47:27.708Z,21.07
2019-02-23T17:49:56.284Z,20.17
2019-02-23T17:52:24.817Z,20.87
2019-02-23T17:54:54.486Z,21.03
2019-02-23T17:57:22.923Z,20.03
2019-02-23T17:59:52.388Z,19.67
2019-02-23T18:02:20.796Z,19.13
2019-02-23T18:04:49.263Z,20.20
2019-02-23T18:07:17.664Z,20.30
2019-02-23T18:09:46.099Z,19.60
2019-02-23T18:12:14.595Z,19.27
2019-02-23T18:14:43.057Z,19.20
2019-02-23T18:17:11.447Z,19.67
2019-02-23T18:19:39.847Z,19.30
2019-02-23T18:22:08.414Z,19.20
2019-02-23T18:24:36.971Z,18.53
2019-02-23T18:27:08.511Z,18.50
2019-02-23T18:29:37.455Z,19.63
2019-02-23T18:32:06.115Z,18.07
2019-02-23T18:34:34.535Z,18.27
2019-02-23T18:37:04.030Z,17.93
2019-02-23T18:39:32.607Z,18.70
2019-02-23T18:42:01.132Z,17.53
2019-02-23T18:44:29.608Z,17.23
2019-02-23T18:46:58.051Z,18.07
2019-02-23T18:49:26.493Z,17.30
2019-02-23T18:51:55.048Z,18.30
2019-02-23T18:54:23.469Z,18.20
2019-02-23T18:56:51.907Z,17.53
2019-02-23T18:59:20.307Z,16.70
2019-02-23T19:01:48.760Z,17.43
2019-02-23T19:04:17.155Z,17.40
2019-02-23T19:06:45.567Z,18.20
2019-02-23T19:09:13.964Z,17.17
2019-02-23T19:11:42.371Z,17.37
2019-02-23T19:14:10.761Z,17.20
2019-02-23T19:16:39.347Z,17.97
2019-02-23T19:19:07.794Z,18.40
2019-02-23T19:21:36.271Z,18.80
2019-02-23T19:24:04.676Z,17.63
2019-02-23T19:26:38.242Z,17.67
2019-02-23T19:29:03.288Z,17.63
2019-02-23T19:31:31.703Z,17.60
2019-02-23T19:34:00.109Z,17.50
2019-02-23T19:36:28.624Z,17.57
2019-02-23T19:38:57.211Z,17.37
2019-02-23T19:41:25.610Z,17.10
2019-02-23T19:43:54.017Z,17.57
2019-02-23T19:46:22.782Z,16.43
2019-02-23T19:48:51.196Z,16.80
2019-02-23T19:51:19.595Z,17.10
2019-02-23T19:53:48.511Z,17.30
2019-02-23T19:56:16.910Z,17.87
2019-02-23T19:58:45.312Z,17.90
2019-02-23T20:01:13.726Z,17.10
2019-02-23T20:03:42.200Z,17.77
2019-02-23T20:06:11.196Z,17.33
2019-02-23T20:08:39.594Z,17.07
2019-02-23T20:11:08.126Z,17.13
2019-02-23T20:13:36.513Z,17.17
2019-02-23T20:16:04.951Z,16.60
2019-02-23T20:18:33.353Z,17.70
2019-02-23T20:21:01.798Z,18.67
2019-02-23T20:23:30.194Z,18.03
2019-02-23T20:25:58.635Z,18.43
2019-02-23T20:28:27.114Z,18.50
2019-02-23T20:30:56.605Z,17.87
2019-02-23T20:35:59.607Z,18.13
2019-02-23T20:38:28.003Z,17.27
2019-02-23T20:40:56.448Z,17.37
2019-02-23T20:43:24.847Z,18.40
2019-02-23T20:45:53.268Z,17.93
2019-02-23T20:48:21.686Z,17.63
2019-02-23T20:50:50.093Z,16.77
2019-02-23T20:53:18.504Z,16.27
2019-02-23T20:55:46.905Z,16.53
2019-02-23T20:58:15.309Z,16.50
2019-02-23T21:00:43.718Z,15.63
2019-02-23T21:03:12.115Z,15.27
2019-02-23T21:05:40.519Z,14.50
2019-02-23T21:08:08.995Z,15.20
2019-02-23T21:10:37.480Z,15.07
2019-02-23T21:13:05.885Z,14.90
2019-02-23T21:15:34.291Z,14.20
2019-02-23T21:18:02.692Z,13.50
2019-02-23T21:20:31.129Z,15.40
2019-02-23T21:22:59.541Z,13.93
2019-02-23T21:25:27.940Z,13.87
2019-02-23T21:27:56.410Z,14.13
2019-02-23T21:30:24.891Z,14.07
2019-02-23T21:32:53.336Z,13.57
2019-02-23T21:35:21.762Z,14.47
2019-02-23T21:37:50.195Z,14.17
2019-02-23T21:40:18.592Z,14.10
2019-02-23T21:42:47.028Z,14.33
2019-02-23T21:45:15.448Z,15.00
2019-02-23T21:47:43.869Z,14.23
2019-02-23T21:50:12.274Z,14.13
2019-02-23T21:52:40.814Z,13.07
2019-02-23T21:55:09.284Z,13.63
2019-02-23T21:57:37.716Z,13.83
2019-02-23T22:00:08.374Z,12.97
2019-02-23T22:02:36.791Z,13.07
2019-02-23T22:05:11.984Z,13.67
2019-02-23T22:07:36.150Z,13.00
2019-02-23T22:10:07.433Z,13.67
2019-02-23T22:12:35.866Z,12.47
2019-02-23T22:15:05.510Z,13.57
2019-02-23T22:17:33.911Z,12.43
2019-02-23T22:20:02.317Z,12.87
2019-02-23T22:22:30.743Z,12.13
2019-02-23T22:25:01.900Z,11.70
2019-02-23T22:27:31.560Z,12.67
2019-02-23T22:30:00.494Z,12.60
2019-02-23T22:32:29.024Z,14.10
2019-02-23T22:34:57.482Z,14.30
2019-02-23T22:37:26.027Z,17.17
2019-02-23T22:39:54.432Z,14.67
2019-02-23T22:42:22.826Z,14.27
2019-02-23T22:44:51.301Z,14.17
2019-02-23T22:47:19.706Z,14.60
2019-02-23T22:49:48.097Z,14.10
2019-02-23T22:52:16.505Z,14.57
2019-02-23T22:54:44.937Z,15.30
2019-02-23T22:57:13.378Z,13.97
2019-02-23T22:59:41.778Z,14.77
2019-02-23T23:02:10.217Z,13.80
2019-02-23T23:04:38.688Z,15.47
2019-02-23T23:07:07.109Z,14.03
2019-02-23T23:09:35.510Z,14.00
2019-02-23T23:12:04.246Z,14.60
2019-02-23T23:14:32.649Z,12.97
2019-02-23T23:17:01.241Z,13.03
2019-02-23T23:19:29.644Z,13.63
2019-02-23T23:21:58.058Z,14.23
2019-02-23T23:24:26.461Z,12.83
2019-02-23T23:26:54.890Z,13.27
2019-02-23T23:29:23.290Z,13.17
2019-02-23T23:31:51.691Z,12.67
2019-02-23T23:34:20.100Z,13.40
2019-02-23T23:36:48.500Z,14.00
2019-02-23T23:39:16.907Z,13.43
2019-02-23T23:41:45.316Z,13.07
2019-02-23T23:44:13.800Z,13.00
2019-02-23T23:46:42.269Z,13.17
2019-02-23T23:49:10.682Z,12.97
2019-02-23T23:51:39.087Z,12.70
2019-02-23T23:54:07.488Z,12.33
2019-02-23T23:56:35.892Z,13.17
2019-02-23T23:59:04.300Z,13.33
